Time;durP1;ratioP1;P1;durP2;ratioP2;P2;SDS_P1;SDS_P2;PMS_P1;PMS_P2;Temp;Humidity;BMP_temperature;BMP_pressure;BME280_temperature;BME280_humidity;BME280_pressure;Samples;Min_cycle;Max_cycle;Signal;HPM_P1;HPM_P2
2023/05/23 00:01:42;;;;;;;42.35;32.80;;;;;;;12.95;100.00;101725.50;5094190;28;20045;-47
2023/05/23 00:04:08;;;;;;;40.97;32.03;;;;;;;13.01;100.00;101726.59;5094616;28;20470;-48
2023/05/23 00:06:35;;;;;;;41.10;32.63;;;;;;;13.01;100.00;101716.25;5093561;28;20027;-47
2023/05/23 00:09:00;;;;;;;39.85;32.78;;;;;;;13.01;100.00;101723.13;5094718;28;20047;-47
2023/05/23 00:11:27;;;;;;;36.80;30.48;;;;;;;13.04;100.00;101724.94;5094087;28;20146;-50
2023/05/23 00:13:53;;;;;;;40.95;31.02;;;;;;;13.01;100.00;101725.69;5093563;28;20063;-51
2023/05/23 00:16:20;;;;;;;39.20;31.75;;;;;;;13.02;100.00;101724.88;5094122;28;20024;-50
2023/05/23 00:18:45;;;;;;;36.50;31.38;;;;;;;13.01;100.00;101723.13;5093946;28;20036;-49
2023/05/23 00:21:12;;;;;;;34.08;29.77;;;;;;;13.02;100.00;101722.28;5093489;28;20020;-48
2023/05/23 00:23:41;;;;;;;37.67;29.42;;;;;;;13.05;100.00;101735.31;5093840;28;20028;-47
2023/05/23 00:26:06;;;;;;;34.47;27.70;;;;;;;13.03;100.00;101729.22;5093986;28;20058;-49
2023/05/23 00:28:32;;;;;;;33.35;27.92;;;;;;;13.05;100.00;101719.78;5092759;28;20472;-49
2023/05/23 00:30:57;;;;;;;32.65;27.70;;;;;;;13.08;100.00;101726.78;5094136;28;20032;-47
2023/05/23 00:33:22;;;;;;;32.47;26.73;;;;;;;13.08;100.00;101727.69;5093774;28;20028;-48
2023/05/23 00:35:48;;;;;;;31.48;26.13;;;;;;;13.10;100.00;101741.53;5093242;28;20028;-52
2023/05/23 00:38:13;;;;;;;30.45;25.42;;;;;;;13.09;100.00;101744.97;5093890;28;20097;-49
2023/05/23 00:40:39;;;;;;;28.65;23.95;;;;;;;13.06;100.00;101747.44;5093316;28;20028;-47
2023/05/23 00:43:05;;;;;;;25.38;22.63;;;;;;;13.05;100.00;101748.25;5093144;28;20077;-51
2023/05/23 00:45:30;;;;;;;25.55;22.27;;;;;;;13.05;100.00;101753.44;5093552;28;20027;-47
2023/05/23 00:47:57;;;;;;;28.38;21.88;;;;;;;13.04;100.00;101749.13;5093397;28;20031;-47
2023/05/23 00:50:23;;;;;;;34.17;22.38;;;;;;;13.05;100.00;101747.41;5092949;28;20028;-49
2023/05/23 00:52:49;;;;;;;27.95;21.23;;;;;;;13.01;100.00;101746.41;5093914;28;20035;-49
2023/05/23 00:55:15;;;;;;;25.38;21.23;;;;;;;13.01;100.00;101749.00;5093481;28;20028;-49
2023/05/23 00:57:43;;;;;;;27.58;22.05;;;;;;;13.00;100.00;101749.81;5092527;28;20024;-49
2023/05/23 01:00:09;;;;;;;26.73;21.67;;;;;;;13.01;100.00;101749.00;5093554;28;20082;-51
2023/05/23 01:02:42;;;;;;;29.23;21.75;;;;;;;13.00;100.00;101747.22;5092689;28;20036;-48
2023/05/23 01:05:08;;;;;;;27.88;20.92;;;;;;;13.00;100.00;101750.72;5093575;28;20028;-46
2023/05/23 01:07:34;;;;;;;25.52;19.98;;;;;;;13.01;100.00;101749.00;5093228;28;20031;-48
2023/05/23 01:10:00;;;;;;;23.35;19.50;;;;;;;13.02;100.00;101749.03;5092565;28;20077;-47
2023/05/23 01:12:33;;;;;;;25.58;19.70;;;;;;;13.00;100.00;101762.75;5092262;28;20418;-50
2023/05/23 01:15:01;;;;;;;29.52;21.48;;;;;;;12.95;100.00;101774.66;5093329;28;20027;-47
2023/05/23 01:17:40;;;;;;;30.55;20.00;;;;;;;12.94;100.00;101766.03;5092150;28;20376;-47
2023/05/23 01:20:18;;;;;;;26.17;19.75;;;;;;;12.94;100.00;101765.16;5093225;28;20081;-51
2023/05/23 01:22:47;;;;;;;26.23;19.27;;;;;;;12.90;100.00;101766.75;5093018;28;20031;-50
2023/05/23 01:25:37;;;;;;;28.38;19.30;;;;;;;12.89;100.00;101761.53;5092685;28;20089;-51
2023/05/23 01:28:06;;;;;;;27.17;19.10;;;;;;;12.85;100.00;101766.56;5093236;28;20030;-48
2023/05/23 01:30:38;;;;;;;31.33;20.17;;;;;;;12.82;100.00;101771.66;5092500;28;20433;-47
2023/05/23 01:33:03;;;;;;;28.80;19.75;;;;;;;12.81;100.00;101775.06;5092401;28;20490;-48
2023/05/23 01:35:30;;;;;;;29.92;19.75;;;;;;;12.78;100.00;101774.06;5092892;28;20032;-48
2023/05/23 01:37:56;;;;;;;31.38;20.58;;;;;;;12.77;100.00;101773.19;5092129;28;20487;-47
2023/05/23 01:40:22;;;;;;;31.88;20.00;;;;;;;12.77;100.00;101773.19;5092695;28;20060;-50
2023/05/23 01:42:48;;;;;;;30.55;21.08;;;;;;;12.74;100.00;101778.25;5093041;28;20103;-49
2023/05/23 01:45:15;;;;;;;32.95;20.67;;;;;;;12.71;100.00;101782.44;5092113;28;20110;-47
2023/05/23 01:47:41;;;;;;;30.23;20.23;;;;;;;12.70;100.00;101783.28;5092749;28;20027;-47
2023/05/23 01:50:09;;;;;;;37.10;22.55;;;;;;;12.67;100.00;101786.63;5093073;28;20047;-47
2023/05/23 01:52:34;;;;;;;40.30;20.70;;;;;;;12.66;100.00;101782.28;5091971;28;20028;-49
2023/05/23 01:55:01;;;;;;;38.08;20.52;;;;;;;12.65;100.00;101788.25;5092923;28;20050;-49
2023/05/23 01:57:29;;;;;;;36.03;22.00;;;;;;;12.61;100.00;101791.56;5092553;28;20035;-48
2023/05/23 01:59:55;;;;;;;;;;;;;;;12.71;100.00;101796.25;5092437;28;20036;-48
2023/05/23 02:02:20;;;;;;;35.95;22.92;;;;;;;12.60;100.00;101801.06;5092376;28;19915;-50
2023/05/23 02:04:45;;;;;;;37.42;22.48;;;;;;;12.59;100.00;101798.38;5092504;28;20024;-52
2023/05/23 02:07:11;;;;;;;37.47;22.92;;;;;;;12.56;100.00;101806.03;5092244;28;20020;-49
2023/05/23 02:09:36;;;;;;;33.35;22.50;;;;;;;12.54;100.00;101802.50;5092397;28;20402;-47
2023/05/23 02:12:01;;;;;;;36.30;21.83;;;;;;;12.52;100.00;101797.28;5092508;28;20115;-47
2023/05/23 02:14:27;;;;;;;38.25;22.65;;;;;;;12.53;100.00;101804.22;5091819;28;20016;-50
2023/05/23 02:16:52;;;;;;;42.47;22.30;;;;;;;12.52;100.00;101803.34;5092284;28;20376;-50
2023/05/23 02:19:18;;;;;;;34.45;22.70;;;;;;;12.52;100.00;101803.34;5092012;28;20487;-50
2023/05/23 02:21:43;;;;;;;36.75;22.27;;;;;;;12.53;100.00;101811.97;5092210;28;20026;-50
2023/05/23 02:24:08;;;;;;;36.70;21.40;;;;;;;12.52;100.00;101816.28;5093685;28;20030;-47
2023/05/23 02:26:34;;;;;;;29.88;18.83;;;;;;;12.53;100.00;101819.75;5095914;28;20400;-47
2023/05/23 02:28:59;;;;;;;30.85;19.02;;;;;;;12.52;100.00;101813.69;5095844;28;20100;-47
2023/05/23 02:31:25;;;;;;;28.95;18.33;;;;;;;12.54;100.00;101812.84;5096023;28;20016;-50
2023/05/23 02:33:51;;;;;;;24.77;16.80;;;;;;;12.54;100.00;101810.25;5096479;28;20398;-50
2023/05/23 02:36:16;;;;;;;22.23;14.68;;;;;;;12.54;100.00;101810.25;5095576;28;20016;-48
2023/05/23 02:38:41;;;;;;;21.08;14.32;;;;;;;12.54;100.00;101808.56;5096349;28;20031;-48
2023/05/23 02:41:07;;;;;;;25.38;14.68;;;;;;;12.55;100.00;101809.44;5095365;28;20434;-47
2023/05/23 02:43:32;;;;;;;24.35;16.73;;;;;;;12.57;100.00;101815.56;5095877;28;20474;-48
2023/05/23 02:45:57;;;;;;;28.73;17.42;;;;;;;12.60;100.00;101810.50;5096030;28;20049;-47
2023/05/23 02:48:22;;;;;;;25.65;15.70;;;;;;;12.58;100.00;101812.16;5095108;28;20031;-48
2023/05/23 02:50:48;;;;;;;24.38;15.02;;;;;;;12.58;100.00;101819.91;5095917;28;20028;-47
2023/05/23 02:53:13;;;;;;;20.52;13.63;;;;;;;12.56;100.00;101819.84;5096063;28;20103;-49
2023/05/23 02:55:38;;;;;;;18.80;12.73;;;;;;;12.56;100.00;101818.97;5095222;28;20028;-47
2023/05/23 02:58:04;;;;;;;17.83;12.52;;;;;;;12.55;100.00;101812.03;5095820;28;20031;-47
2023/05/23 03:00:31;;;;;;;17.65;12.55;;;;;;;12.59;100.00;101816.47;5095392;28;20023;-51
2023/05/23 03:02:57;;;;;;;19.08;12.65;;;;;;;12.56;100.00;101813.78;5095141;28;20089;-51
2023/05/23 03:05:22;;;;;;;17.05;12.18;;;;;;;12.54;100.00;101812.84;5095584;28;20024;-47
2023/05/23 03:07:47;;;;;;;17.65;9.80;;;;;;;12.50;100.00;101812.75;5095354;28;20035;-51
2023/05/23 03:10:13;;;;;;;16.60;9.90;;;;;;;12.47;100.00;101810.06;5095100;28;20028;-47
2023/05/23 03:12:38;;;;;;;14.25;9.48;;;;;;;12.44;100.00;101815.09;5095214;28;20032;-47
2023/05/23 03:15:04;;;;;;;11.52;9.25;;;;;;;12.40;100.00;101820.97;5095214;28;20024;-47
2023/05/23 03:17:29;;;;;;;12.02;8.85;;;;;;;12.38;100.00;101822.63;5094302;28;20127;-47
2023/05/23 03:19:55;;;;;;;13.50;9.02;;;;;;;12.35;100.00;101823.38;5095618;28;20028;-46
2023/05/23 03:22:20;;;;;;;12.90;8.57;;;;;;;12.36;100.00;101816.53;5095153;28;20063;-47
2023/05/23 03:24:45;;;;;;;14.02;8.57;;;;;;;12.37;100.00;101817.38;5094750;28;20032;-51
2023/05/23 03:27:11;;;;;;;12.25;8.50;;;;;;;12.36;100.00;101816.53;5095106;28;20020;-48
2023/05/23 03:29:36;;;;;;;11.70;8.10;;;;;;;12.38;100.00;101821.75;5094595;28;20140;-47
2023/05/23 03:32:01;;;;;;;12.75;8.30;;;;;;;12.39;100.00;101819.22;5094765;28;20028;-47
2023/05/23 03:34:26;;;;;;;12.48;8.63;;;;;;;12.40;100.00;101822.69;5095022;28;20028;-49
2023/05/23 03:36:52;;;;;;;14.80;8.18;;;;;;;12.39;100.00;101818.34;5094118;28;20060;-51
2023/05/23 03:39:17;;;;;;;11.80;8.63;;;;;;;12.42;100.00;101824.53;5094187;28;20032;-47
2023/05/23 03:41:43;;;;;;;10.75;8.00;;;;;;;12.42;100.00;101827.09;5095117;28;20043;-47
2023/05/23 03:44:08;;;;;;;12.25;8.98;;;;;;;12.44;100.00;101829.75;5094481;28;20085;-51
2023/05/23 03:46:33;;;;;;;12.38;8.43;;;;;;;12.44;100.00;101828.03;5094190;28;20021;-48
2023/05/23 03:48:59;;;;;;;15.40;8.55;;;;;;;12.46;100.00;101828.97;5095019;28;20379;-48
2023/05/23 03:51:24;;;;;;;14.23;9.27;;;;;;;12.45;100.00;101824.63;5093690;28;20032;-50
2023/05/23 03:53:49;;;;;;;11.95;9.25;;;;;;;12.48;100.00;101832.47;5094955;28;20020;-50
2023/05/23 03:56:15;;;;;;;13.35;8.52;;;;;;;12.47;100.00;101829.84;5094841;28;20082;-51
2023/05/23 03:58:40;;;;;;;13.60;8.85;;;;;;;12.48;100.00;101837.66;5093604;28;20035;-51
2023/05/23 04:01:05;;;;;;;15.65;9.60;;;;;;;12.50;100.00;101837.72;5094519;28;20024;-51
2023/05/23 04:03:31;;;;;;;17.77;10.05;;;;;;;12.52;100.00;101842.13;5094394;28;20032;-51
2023/05/23 04:05:58;;;;;;;17.70;10.82;;;;;;;12.50;100.00;101838.59;5093801;28;20407;-50
2023/05/23 04:08:24;;;;;;;16.67;10.80;;;;;;;12.50;100.00;101841.19;5094202;28;20027;-51
2023/05/23 04:10:49;;;;;;;17.35;10.57;;;;;;;12.51;100.00;101847.22;5094265;28;20028;-50
2023/05/23 04:13:14;;;;;;;20.17;10.18;;;;;;;12.51;100.00;101840.38;5093763;28;20024;-52
2023/05/23 04:15:41;;;;;;;20.85;10.90;;;;;;;12.52;100.00;101849.00;5093851;28;20093;-48
2023/05/23 04:18:08;;;;;;;18.30;10.07;;;;;;;12.52;100.00;101852.47;5093958;28;20040;-51
2023/05/23 04:20:33;;;;;;;18.13;11.02;;;;;;;12.54;100.00;101846.47;5093441;28;20054;-50
2023/05/23 04:22:58;;;;;;;18.77;11.75;;;;;;;12.55;100.00;101843.06;5094148;28;20093;-51
2023/05/23 04:25:24;;;;;;;16.90;10.40;;;;;;;12.56;100.00;101856.03;5093554;28;20028;-50
2023/05/23 04:27:49;;;;;;;19.30;10.43;;;;;;;12.55;100.00;101856.88;5093563;28;20028;-52
2023/05/23 04:30:16;;;;;;;19.85;11.02;;;;;;;12.56;100.00;101856.03;5093884;28;20028;-50
2023/05/23 04:32:42;;;;;;;19.42;11.02;;;;;;;12.57;100.00;101851.75;5093901;28;20020;-50
2023/05/23 04:35:07;;;;;;;18.35;10.88;;;;;;;12.59;100.00;101860.44;5093462;28;20385;-48
2023/05/23 04:37:34;;;;;;;21.08;10.63;;;;;;;12.60;100.00;101857.94;5093648;28;20104;-50
2023/05/23 04:39:59;;;;;;;20.05;10.98;;;;;;;12.62;100.00;101871.78;5093519;28;20423;-51
2023/05/23 04:42:25;;;;;;;16.58;11.32;;;;;;;12.65;100.00;101865.84;5092918;28;20464;-51
2023/05/23 04:44:51;;;;;;;19.42;11.68;;;;;;;12.67;100.00;101867.69;5093637;28;20035;-51
2023/05/23 04:47:17;;;;;;;24.60;12.80;;;;;;;12.71;100.00;101871.25;5092340;28;20020;-49
2023/05/23 04:49:43;;;;;;;19.55;12.02;;;;;;;12.70;100.00;101877.25;5093118;28;20070;-51
2023/05/23 04:52:09;;;;;;;21.95;12.48;;;;;;;12.73;100.00;101879.97;5093456;28;20024;-50
2023/05/23 04:54:36;;;;;;;20.60;11.93;;;;;;;12.74;100.00;101878.25;5093139;28;20026;-51
2023/05/23 04:57:02;;;;;;;21.90;13.27;;;;;;;12.74;100.00;101879.13;5093148;28;20032;-51
2023/05/23 04:59:27;;;;;;;22.55;13.20;;;;;;;12.78;100.00;101888.78;5093120;28;20024;-51
2023/05/23 05:01:52;;;;;;;31.65;14.88;;;;;;;12.78;100.00;101888.78;5092819;28;20035;-49
2023/05/23 05:04:17;;;;;;;34.95;17.13;;;;;;;12.78;100.00;101893.97;5093226;28;20421;-52
2023/05/23 05:06:43;;;;;;;30.05;16.45;;;;;;;12.73;100.00;101895.50;5093515;28;20035;-50
2023/05/23 05:09:08;;;;;;;36.17;18.15;;;;;;;12.68;100.00;101891.84;5092534;28;20103;-50
2023/05/23 05:11:33;;;;;;;30.02;16.20;;;;;;;12.64;100.00;101900.28;5093059;28;20422;-51
2023/05/23 05:13:59;;;;;;;26.90;15.45;;;;;;;12.60;100.00;101898.41;5093145;28;20535;-51
2023/05/23 05:16:24;;;;;;;34.53;16.05;;;;;;;12.54;100.00;101908.53;5092288;28;20024;-51
2023/05/23 05:18:50;;;;;;;27.63;15.57;;;;;;;12.51;100.00;101904.13;5093102;28;20434;-51
2023/05/23 05:21:15;;;;;;;33.78;16.05;;;;;;;12.44;100.00;101902.13;5092828;28;20422;-47
2023/05/23 05:23:40;;;;;;;37.00;15.88;;;;;;;12.39;100.00;101909.69;5092500;28;20512;-51
2023/05/23 05:26:07;;;;;;;35.00;16.52;;;;;;;12.37;100.00;101908.78;5092892;28;20081;-51
2023/05/23 05:28:32;;;;;;;35.45;16.45;;;;;;;12.32;100.00;101918.91;5092602;28;20102;-51
2023/05/23 05:30:57;;;;;;;32.15;16.83;;;;;;;12.30;100.00;101910.25;5092691;28;20154;-50
2023/05/23 05:33:23;;;;;;;40.15;16.90;;;;;;;12.30;100.00;101915.41;5092690;28;20024;-50
2023/05/23 05:35:50;;;;;;;38.67;16.75;;;;;;;12.34;100.00;101921.56;5092878;28;20024;-50
2023/05/23 05:38:16;;;;;;;25.63;12.48;;;;;;;12.28;100.00;101916.16;5092071;28;20392;-49
2023/05/23 05:40:41;;;;;;;24.10;12.02;;;;;;;12.27;100.00;101925.59;5092974;28;20028;-50
2023/05/23 05:43:07;;;;;;;22.15;11.65;;;;;;;12.24;100.00;101930.66;5092644;28;20028;-51
2023/05/23 05:45:32;;;;;;;24.77;11.60;;;;;;;12.23;100.00;101928.03;5091942;28;20036;-48
2023/05/23 05:47:57;;;;;;;27.58;13.02;;;;;;;12.21;100.00;101934.81;5093042;28;20530;-51
2023/05/23 05:50:23;;;;;;;27.77;13.45;;;;;;;12.17;100.00;101945.06;5092481;28;20031;-51
2023/05/23 05:52:48;;;;;;;24.30;13.48;;;;;;;12.12;100.00;101951.72;5092318;28;20027;-49
2023/05/23 05:55:14;;;;;;;27.95;12.88;;;;;;;12.08;100.00;101943.78;5092917;28;20099;-52
2023/05/23 05:57:40;;;;;;;24.08;11.82;;;;;;;12.04;100.00;101958.28;5092160;28;20046;-51
2023/05/23 06:00:11;;;;;;;21.10;11.13;;;;;;;11.98;100.00;101951.16;5095404;28;20050;-51
2023/05/23 06:02:38;;;;;;;25.67;10.30;;;;;;;11.93;100.00;101962.97;5096691;28;20108;-51
2023/05/23 06:05:05;;;;;;;24.17;10.88;;;;;;;11.88;100.00;101955.81;5096108;28;20020;-51
2023/05/23 06:07:30;;;;;;;24.58;10.50;;;;;;;11.83;100.00;101956.53;5096453;28;20077;-49
2023/05/23 06:09:55;;;;;;;22.17;9.40;;;;;;;11.81;100.00;101959.84;5096592;28;20114;-50
2023/05/23 06:12:21;;;;;;;22.02;10.10;;;;;;;11.78;100.00;101959.75;5095514;28;20024;-51
2023/05/23 06:14:46;;;;;;;22.20;9.60;;;;;;;11.76;100.00;101957.09;5096595;28;20020;-50
2023/05/23 06:17:11;;;;;;;16.88;9.18;;;;;;;11.73;100.00;101959.53;5096410;28;20051;-51
2023/05/23 06:19:37;;;;;;;18.38;9.23;;;;;;;11.74;100.00;101969.06;5095811;28;20024;-51
2023/05/23 06:22:02;;;;;;;19.92;10.18;;;;;;;11.72;100.00;101965.50;5096714;28;20024;-47
2023/05/23 06:24:28;;;;;;;26.02;9.43;;;;;;;11.72;100.00;101970.66;5095897;28;20381;-50
2023/05/23 06:26:53;;;;;;;19.42;8.90;;;;;;;11.74;100.00;101979.38;5095732;28;20494;-51
2023/05/23 06:29:18;;;;;;;22.92;9.68;;;;;;;11.77;100.00;101983.78;5096212;28;20020;-51
2023/05/23 06:31:43;;;;;;;23.48;9.98;;;;;;;11.78;100.00;101981.28;5096244;28;20026;-51
2023/05/23 06:34:09;;;;;;;25.63;9.45;;;;;;;11.72;100.00;101980.13;5095832;28;20077;-51
2023/05/23 06:36:34;;;;;;;21.10;8.85;;;;;;;11.67;100.00;101982.50;5096127;28;20405;-47
2023/05/23 06:38:59;;;;;;;20.58;9.25;;;;;;;11.62;100.00;101989.16;5095987;28;20021;-51
2023/05/23 06:41:26;;;;;;;18.65;8.80;;;;;;;11.59;100.00;101981.28;5095205;28;20024;-50
2023/05/23 06:43:51;;;;;;;17.30;8.73;;;;;;;11.56;100.00;101991.50;5096257;28;20431;-50
2023/05/23 06:46:17;;;;;;;19.98;9.48;;;;;;;11.54;100.00;102001.75;5095392;28;20034;-51
2023/05/23 06:48:42;;;;;;;19.70;8.13;;;;;;;11.49;100.00;102000.66;5095568;28;20030;-50
2023/05/23 06:51:07;;;;;;;18.30;8.18;;;;;;;11.41;100.00;102013.22;5096006;28;20104;-50
2023/05/23 06:53:33;;;;;;;20.63;8.15;;;;;;;11.37;100.00;102008.75;5095450;28;20023;-50
2023/05/23 06:55:58;;;;;;;18.27;7.60;;;;;;;11.36;100.00;102004.38;5095325;28;20050;-52
2023/05/23 06:58:24;;;;;;;21.10;8.50;;;;;;;11.38;100.00;102018.25;5095734;28;20456;-51
2023/05/23 07:00:49;;;;;;;17.65;8.48;;;;;;;11.48;100.00;102020.44;5095614;28;20030;-52
2023/05/23 07:03:15;;;;;;;18.77;8.35;;;;;;;11.47;100.00;102023.81;5095346;28;20163;-48
2023/05/23 07:05:40;;;;;;;20.45;8.07;;;;;;;11.52;100.00;102027.50;5095609;28;20467;-49
2023/05/23 07:08:06;;;;;;;34.08;8.65;;;;;;;11.59;100.00;102030.34;5095350;28;20031;-46
2023/05/23 07:10:33;;;;;;;19.02;7.63;;;;;;;11.79;100.00;102026.09;5093677;28;20020;-49
2023/05/23 07:12:58;;;;;;;19.60;6.93;;;;;;;11.95;100.00;102032.78;5095498;28;20456;-45
2023/05/23 07:15:24;;;;;;;20.70;7.68;;;;;;;12.06;100.00;102028.09;5094534;28;20035;-50
2023/05/23 07:17:49;;;;;;;16.23;6.57;;;;;;;12.17;100.00;102032.94;5095167;28;20044;-49
2023/05/23 07:20:14;;;;;;;17.45;7.20;;;;;;;12.33;99.98;102036.13;5095480;28;20024;-49
2023/05/23 07:22:40;;;;;;;16.83;6.72;;;;;;;12.60;99.54;102038.06;5094295;28;20044;-49
2023/05/23 07:25:06;;;;;;;20.02;6.97;;;;;;;12.67;97.53;102035.78;5095126;28;20024;-49
2023/05/23 07:27:31;;;;;;;17.33;7.00;;;;;;;12.93;96.76;102030.78;5094847;28;20020;-47
2023/05/23 07:29:57;;;;;;;19.35;7.32;;;;;;;12.96;95.09;102042.94;5094792;28;20035;-50
2023/05/23 07:32:22;;;;;;;15.80;7.20;;;;;;;13.01;93.69;102031.06;5094899;28;20020;-49
2023/05/23 07:34:47;;;;;;;15.07;7.25;;;;;;;13.05;92.58;102043.28;5094977;28;20040;-50
2023/05/23 07:37:12;;;;;;;19.48;7.20;;;;;;;13.11;91.78;102040.94;5094707;28;20485;-49
2023/05/23 07:39:38;;;;;;;13.95;6.90;;;;;;;13.07;89.65;102041.66;5094720;28;20031;-50
2023/05/23 07:42:03;;;;;;;19.15;7.00;;;;;;;13.04;89.34;102051.91;5094913;28;20032;-50
2023/05/23 07:44:28;;;;;;;16.80;7.25;;;;;;;13.03;89.25;102055.31;5094160;28;20039;-51
2023/05/23 07:46:54;;;;;;;14.85;7.13;;;;;;;13.08;89.58;102052.88;5095031;28;20026;-50
2023/05/23 07:49:19;;;;;;;12.57;6.43;;;;;;;13.12;89.38;102045.31;5094378;28;20103;-51
2023/05/23 07:51:45;;;;;;;13.60;6.68;;;;;;;13.26;88.28;102048.44;5094241;28;20073;-49
2023/05/23 07:54:10;;;;;;;15.27;7.72;;;;;;;13.49;88.65;102054.50;5094559;28;20024;-47
2023/05/23 07:56:37;;;;;;;14.50;7.00;;;;;;;13.67;86.69;102061.16;5094380;28;20043;-49
2023/05/23 07:59:02;;;;;;;14.30;6.53;;;;;;;13.79;87.70;102058.16;5094277;28;20027;-50
2023/05/23 08:01:28;;;;;;;17.90;7.45;;;;;;;13.67;86.47;102068.94;5094404;28;20285;-50
2023/05/23 08:03:53;;;;;;;14.10;6.57;;;;;;;13.63;87.11;102057.59;5094328;28;20414;-49
2023/05/23 08:06:19;;;;;;;16.25;6.53;;;;;;;13.50;85.60;102064.03;5093490;28;20019;-47
2023/05/23 08:08:44;;;;;;;16.25;6.43;;;;;;;13.33;86.44;102059.91;5094393;28;20024;-50
2023/05/23 08:11:10;;;;;;;14.52;6.50;;;;;;;13.37;88.58;102072.16;5094229;28;20024;-49
2023/05/23 08:13:35;;;;;;;15.27;6.70;;;;;;;13.29;88.47;102076.16;5093507;28;20036;-50
2023/05/23 08:16:00;;;;;;;17.55;7.30;;;;;;;13.24;88.83;102080.25;5094407;28;20023;-48
2023/05/23 08:18:26;;;;;;;17.30;7.20;;;;;;;13.09;89.68;102078.84;5093648;28;20043;-50
2023/05/23 08:20:52;;;;;;;13.93;6.80;;;;;;;13.10;89.86;102082.31;5093707;28;20036;-48
2023/05/23 08:23:17;;;;;;;37.85;9.75;;;;;;;12.95;90.09;102085.16;5093766;28;20081;-51
2023/05/23 08:25:43;;;;;;;14.93;7.35;;;;;;;13.00;89.90;102081.06;5093279;28;20031;-48
2023/05/23 08:28:09;;;;;;;17.25;7.78;;;;;;;13.04;90.25;102075.19;5094352;28;20131;-46
2023/05/23 08:30:35;;;;;;;12.98;6.57;;;;;;;13.05;90.89;102079.53;5093677;28;20099;-49
2023/05/23 08:33:03;;;;;;;12.32;5.75;;;;;;;13.01;91.27;102082.81;5093639;28;20028;-50
2023/05/23 08:35:32;;;;;;;;;;;;;;;13.14;92.19;102084.19;5094124;28;20028;-47
2023/05/23 08:37:58;;;;;;;13.82;6.03;;;;;;;12.89;91.67;102085.81;5093610;28;19911;-46
2023/05/23 08:40:28;;;;;;;14.57;6.70;;;;;;;12.92;92.83;102088.50;5093203;28;20031;-49
2023/05/23 08:42:53;;;;;;;13.05;6.60;;;;;;;13.04;93.81;102085.56;5093851;28;20016;-46
2023/05/23 08:45:19;;;;;;;14.82;6.60;;;;;;;13.13;92.96;102078.13;5093249;28;20395;-49
2023/05/23 08:47:45;;;;;;;15.00;6.55;;;;;;;12.91;91.74;102091.03;5093321;28;20099;-50
2023/05/23 08:50:13;;;;;;;15.65;7.25;;;;;;;12.90;93.24;102091.84;5093759;28;20051;-51
2023/05/23 08:52:50;;;;;;;15.23;5.78;;;;;;;12.78;94.52;102100.91;5092980;28;20385;-47
2023/05/23 08:55:16;;;;;;;13.23;5.43;;;;;;;12.97;94.85;102096.47;5092959;28;20111;-46
2023/05/23 08:57:44;;;;;;;11.80;5.60;;;;;;;13.37;95.01;102092.00;5094248;28;20044;-49
2023/05/23 09:00:13;;;;;;;12.43;5.47;;;;;;;13.70;93.42;102099.25;5093329;28;20115;-49
2023/05/23 09:02:42;;;;;;;12.15;5.10;;;;;;;13.99;90.61;102102.91;5093056;28;20062;-51
2023/05/23 09:05:08;;;;;;;15.77;5.40;;;;;;;14.48;89.78;102102.00;5093295;28;20035;-49
2023/05/23 09:07:34;;;;;;;10.25;4.43;;;;;;;14.41;86.34;102106.94;5093032;28;20039;-50
2023/05/23 09:09:59;;;;;;;15.38;4.82;;;;;;;14.39;86.57;102111.22;5092889;28;20024;-45
2023/05/23 09:12:25;;;;;;;12.68;4.68;;;;;;;14.11;86.95;102105.03;5093061;28;20032;-51
2023/05/23 09:14:50;;;;;;;12.10;4.18;;;;;;;14.19;86.07;102113.09;5092972;28;20024;-52
2023/05/23 09:17:18;;;;;;;14.95;4.30;;;;;;;14.04;86.36;102114.31;5092203;28;20237;-46
2023/05/23 09:19:45;;;;;;;17.30;4.80;;;;;;;14.02;85.96;102120.28;5093068;28;20044;-50
2023/05/23 09:22:10;;;;;;;19.35;4.70;;;;;;;14.37;86.60;102116.34;5092782;28;20024;-51
2023/05/23 09:24:37;;;;;;;16.17;4.25;;;;;;;14.41;82.94;102119.91;5092883;28;20043;-52
2023/05/23 09:27:04;;;;;;;13.82;4.07;;;;;;;14.58;81.99;102121.38;5093039;28;20039;-51
2023/05/23 09:29:29;;;;;;;;;;;;;;;14.74;85.37;102121.91;5092683;28;20031;-50
2023/05/23 09:32:21;;;;;;;13.80;4.33;;;;;;;14.61;83.30;102124.06;5092985;28;19912;-51
2023/05/23 09:34:49;;;;;;;15.52;4.00;;;;;;;14.30;81.56;102127.31;5089290;28;20173;-51
2023/05/23 09:37:17;;;;;;;14.63;4.07;;;;;;;14.14;81.02;102136.28;5092695;28;20110;-52
2023/05/23 09:39:47;;;;;;;12.88;3.67;;;;;;;14.07;82.24;102130.00;5093116;28;20041;-52
2023/05/23 09:42:19;;;;;;;14.88;3.88;;;;;;;14.21;82.05;102129.59;5092648;28;20094;-51
2023/05/23 09:44:45;;;;;;;15.90;4.18;;;;;;;14.25;79.78;102128.88;5092296;28;20081;-51
2023/05/23 09:47:10;;;;;;;15.57;4.60;;;;;;;14.56;79.79;102129.94;5093060;28;20030;-49
2023/05/23 09:49:39;;;;;;;14.63;3.85;;;;;;;14.73;78.19;102134.00;5092571;28;20012;-51
2023/05/23 09:52:04;;;;;;;17.63;4.35;;;;;;;14.78;77.34;102132.47;5092461;28;20043;-52
2023/05/23 09:54:29;;;;;;;14.93;3.60;;;;;;;14.58;75.56;102126.56;5092557;28;20063;-50
2023/05/23 09:56:59;;;;;;;19.55;4.22;;;;;;;14.51;74.83;102136.66;5092513;28;20024;-49
2023/05/23 09:59:27;;;;;;;16.20;4.20;;;;;;;14.62;74.57;102130.13;5091867;28;20028;-50
2023/05/23 10:01:55;;;;;;;;;;;;;;;14.85;77.14;102133.53;5093050;28;20099;-51
2023/05/23 10:04:24;;;;;;;13.02;3.97;;;;;;;15.27;72.37;102124.44;5091936;28;19916;-51
2023/05/23 10:06:53;;;;;;;15.90;3.85;;;;;;;15.72;69.48;102117.97;5092874;28;20070;-51
2023/05/23 10:09:22;;;;;;;12.20;3.58;;;;;;;16.82;67.98;102120.88;5092219;28;20059;-51
2023/05/23 10:12:35;;;;;;;13.60;4.05;;;;;;;16.92;68.49;102117.69;5092170;28;20024;-50
2023/05/23 10:15:03;;;;;;;10.52;3.05;;;;;;;16.81;62.87;102114.81;5092779;28;20102;-49
2023/05/23 10:17:58;;;;;;;18.42;4.15;;;;;;;16.66;63.35;102120.50;5092058;28;20052;-52
2023/05/23 10:20:30;;;;;;;11.98;3.83;;;;;;;17.76;58.97;102125.59;5085899;28;20051;-50
2023/05/23 10:22:58;;;;;;;11.80;3.65;;;;;;;18.34;53.39;102123.25;5092443;28;20104;-50
2023/05/23 10:25:23;;;;;;;18.17;4.63;;;;;;;18.82;51.65;102131.00;5091724;28;20036;-52
2023/05/23 10:27:49;;;;;;;12.07;3.67;;;;;;;19.12;51.27;102122.81;5092451;28;20422;-51
2023/05/23 10:30:14;;;;;;;13.48;3.58;;;;;;;19.81;48.91;102127.19;5092140;28;20545;-54
2023/05/23 10:32:41;;;;;;;12.82;3.95;;;;;;;19.61;47.76;102130.41;5091587;28;20040;-51
2023/05/23 10:35:19;;;;;;;13.33;4.17;;;;;;;18.79;50.41;102144.03;5092566;28;20123;-51
2023/05/23 10:38:22;;;;;;;11.40;2.92;;;;;;;19.33;53.08;102142.28;5092366;28;20361;-50
2023/05/23 10:41:10;;;;;;;15.55;3.72;;;;;;;19.79;48.20;102135.00;5091830;28;20031;-52
2023/05/23 10:43:44;;;;;;;13.85;3.35;;;;;;;20.52;47.59;102133.16;5092207;28;20024;-50
2023/05/23 10:46:12;;;;;;;13.85;3.40;;;;;;;21.16;43.88;102124.03;5095031;28;20036;-51
2023/05/23 10:48:42;;;;;;;13.07;3.60;;;;;;;21.44;43.60;102119.81;5095224;28;20047;-50
2023/05/23 10:51:09;;;;;;;14.23;3.55;;;;;;;20.15;43.75;102127.56;5095777;28;20032;-51
2023/05/23 10:53:37;;;;;;;11.25;3.22;;;;;;;19.02;45.82;102137.47;5095137;28;20601;-51
2023/05/23 10:56:06;;;;;;;13.55;3.70;;;;;;;19.29;47.98;102137.81;5095751;28;20474;-49
2023/05/23 10:58:33;;;;;;;15.88;4.43;;;;;;;19.32;47.89;102127.44;5095269;28;20407;-50
2023/05/23 11:01:01;;;;;;;11.50;3.80;;;;;;;18.57;47.88;102133.22;5095397;28;20023;-50
2023/05/23 11:03:34;;;;;;;15.32;3.88;;;;;;;18.10;49.78;102137.63;5095524;28;20024;-48
2023/05/23 11:06:00;;;;;;;15.30;4.38;;;;;;;18.55;49.38;102135.81;5095328;28;20066;-49
2023/05/23 11:08:26;;;;;;;9.90;3.30;;;;;;;19.56;46.58;102119.91;5094999;28;20028;-50